sensor_id;sensor_type;location;lat;lon;timestamp;temperature;humidity
58517;DHT22;44308;50.810;0.284;2022-11-25T00:02:21;11.80;99.90
58517;DHT22;44308;50.810;0.284;2022-11-25T00:04:47;11.70;99.90
58517;DHT22;44308;50.810;0.284;2022-11-25T00:07:13;11.60;99.90
58517;DHT22;44308;50.810;0.284;2022-11-25T00:09:38;11.50;99.90
58517;DHT22;44308;50.810;0.284;2022-11-25T00:12:04;11.60;99.90
58517;DHT22;44308;50.810;0.284;2022-11-25T00:14:30;11.70;99.90
58517;DHT22;44308;50.810;0.284;2022-11-25T00:16:56;11.90;99.90
58517;DHT22;44308;50.810;0.284;2022-11-25T00:19:21;12.10;99.90
58517;DHT22;44308;50.810;0.284;2022-11-25T00:21:47;12.00;99.90
58517;DHT22;44308;50.810;0.284;2022-11-25T00:24:14;11.90;99.90
58517;DHT22;44308;50.810;0.284;2022-11-25T00:26:41;12.20;99.90
58517;DHT22;44308;50.810;0.284;2022-11-25T00:29:09;12.00;99.90
58517;DHT22;44308;50.810;0.284;2022-11-25T00:31:37;11.80;99.90
58517;DHT22;44308;50.810;0.284;2022-11-25T00:34:03;11.90;99.90
58517;DHT22;44308;50.810;0.284;2022-11-25T00:36:34;11.90;99.90
58517;DHT22;44308;50.810;0.284;2022-11-25T00:39:15;11.80;99.90
58517;DHT22;44308;50.810;0.284;2022-11-25T00:41:42;11.90;99.90
58517;DHT22;44308;50.810;0.284;2022-11-25T00:44:27;11.90;99.90
58517;DHT22;44308;50.810;0.284;2022-11-25T00:47:12;11.50;99.90
58517;DHT22;44308;50.810;0.284;2022-11-25T00:49:40;11.50;99.90
58517;DHT22;44308;50.810;0.284;2022-11-25T00:52:07;11.40;99.90
58517;DHT22;44308;50.810;0.284;2022-11-25T00:54:33;11.80;99.90
58517;DHT22;44308;50.810;0.284;2022-11-25T00:56:59;11.60;99.90
58517;DHT22;44308;50.810;0.284;2022-11-25T00:59:26;11.60;99.90
58517;DHT22;44308;50.810;0.284;2022-11-25T01:01:53;12.10;99.90
58517;DHT22;44308;50.810;0.284;2022-11-25T01:04:19;12.00;99.90
58517;DHT22;44308;50.810;0.284;2022-11-25T01:06:44;12.00;99.90
58517;DHT22;44308;50.810;0.284;2022-11-25T01:09:11;12.00;99.90
58517;DHT22;44308;50.810;0.284;2022-11-25T01:11:37;12.00;99.90
58517;DHT22;44308;50.810;0.284;2022-11-25T01:14:03;11.90;99.90
58517;DHT22;44308;50.810;0.284;2022-11-25T01:16:30;11.70;99.90
58517;DHT22;44308;50.810;0.284;2022-11-25T01:19:00;11.50;99.90
58517;DHT22;44308;50.810;0.284;2022-11-25T01:21:31;11.80;99.90
58517;DHT22;44308;50.810;0.284;2022-11-25T01:24:01;11.60;99.90
58517;DHT22;44308;50.810;0.284;2022-11-25T01:26:28;11.50;99.90
58517;DHT22;44308;50.810;0.284;2022-11-25T01:28:56;11.80;99.90
58517;DHT22;44308;50.810;0.284;2022-11-25T01:31:25;11.60;99.90
58517;DHT22;44308;50.810;0.284;2022-11-25T01:34:03;11.30;99.90
58517;DHT22;44308;50.810;0.284;2022-11-25T01:36:29;11.60;99.90
58517;DHT22;44308;50.810;0.284;2022-11-25T01:38:57;11.30;99.90
58517;DHT22;44308;50.810;0.284;2022-11-25T01:41:25;11.20;99.90
58517;DHT22;44308;50.810;0.284;2022-11-25T01:44:22;11.60;99.90
58517;DHT22;44308;50.810;0.284;2022-11-25T01:49:58;11.40;99.90
58517;DHT22;44308;50.810;0.284;2022-11-25T01:52:31;11.60;99.90
58517;DHT22;44308;50.810;0.284;2022-11-25T01:55:07;11.60;99.90
58517;DHT22;44308;50.810;0.284;2022-11-25T01:57:41;11.50;99.90
58517;DHT22;44308;50.810;0.284;2022-11-25T02:00:08;11.60;99.90
58517;DHT22;44308;50.810;0.284;2022-11-25T02:02:34;11.50;99.90
58517;DHT22;44308;50.810;0.284;2022-11-25T02:05:03;12.00;99.90
58517;DHT22;44308;50.810;0.284;2022-11-25T02:07:34;12.10;99.90
58517;DHT22;44308;50.810;0.284;2022-11-25T02:10:02;11.70;99.90
58517;DHT22;44308;50.810;0.284;2022-11-25T02:12:29;11.70;99.90
58517;DHT22;44308;50.810;0.284;2022-11-25T02:14:56;11.80;99.90
58517;DHT22;44308;50.810;0.284;2022-11-25T02:17:23;11.70;99.90
58517;DHT22;44308;50.810;0.284;2022-11-25T02:25:32;11.80;99.90
58517;DHT22;44308;50.810;0.284;2022-11-25T02:28:10;11.90;99.90
58517;DHT22;44308;50.810;0.284;2022-11-25T02:30:38;11.60;99.90
58517;DHT22;44308;50.810;0.284;2022-11-25T02:33:04;12.00;99.90
58517;DHT22;44308;50.810;0.284;2022-11-25T02:35:34;11.80;99.90
58517;DHT22;44308;50.810;0.284;2022-11-25T02:43:25;10.80;99.90
58517;DHT22;44308;50.810;0.284;2022-11-25T02:46:03;11.10;99.90
58517;DHT22;44308;50.810;0.284;2022-11-25T02:48:32;10.50;99.90
58517;DHT22;44308;50.810;0.284;2022-11-25T02:50:58;10.60;99.90
58517;DHT22;44308;50.810;0.284;2022-11-25T02:53:24;10.90;99.90
58517;DHT22;44308;50.810;0.284;2022-11-25T02:55:49;11.10;99.90
58517;DHT22;44308;50.810;0.284;2022-11-25T02:58:16;10.50;99.90
58517;DHT22;44308;50.810;0.284;2022-11-25T03:00:43;10.50;99.90
58517;DHT22;44308;50.810;0.284;2022-11-25T03:03:09;10.50;99.90
58517;DHT22;44308;50.810;0.284;2022-11-25T03:05:34;11.10;99.90
58517;DHT22;44308;50.810;0.284;2022-11-25T03:08:00;10.80;99.90
58517;DHT22;44308;50.810;0.284;2022-11-25T03:10:26;10.70;99.90
58517;DHT22;44308;50.810;0.284;2022-11-25T03:12:52;10.80;99.90
58517;DHT22;44308;50.810;0.284;2022-11-25T03:15:18;10.70;99.90
58517;DHT22;44308;50.810;0.284;2022-11-25T03:17:44;10.70;99.90
58517;DHT22;44308;50.810;0.284;2022-11-25T03:20:11;10.60;99.90
58517;DHT22;44308;50.810;0.284;2022-11-25T03:22:40;11.20;99.90
58517;DHT22;44308;50.810;0.284;2022-11-25T03:25:07;10.80;99.90
58517;DHT22;44308;50.810;0.284;2022-11-25T03:27:33;10.50;99.90
58517;DHT22;44308;50.810;0.284;2022-11-25T03:29:59;10.50;99.90
58517;DHT22;44308;50.810;0.284;2022-11-25T03:32:25;10.40;99.90
58517;DHT22;44308;50.810;0.284;2022-11-25T03:34:51;10.90;99.90
58517;DHT22;44308;50.810;0.284;2022-11-25T03:37:17;10.60;99.90
58517;DHT22;44308;50.810;0.284;2022-11-25T03:39:43;10.30;99.90
58517;DHT22;44308;50.810;0.284;2022-11-25T03:42:09;10.90;99.90
58517;DHT22;44308;50.810;0.284;2022-11-25T03:44:35;10.30;99.90
58517;DHT22;44308;50.810;0.284;2022-11-25T03:47:01;10.30;99.90
58517;DHT22;44308;50.810;0.284;2022-11-25T03:49:26;10.70;99.90
58517;DHT22;44308;50.810;0.284;2022-11-25T03:51:52;10.80;99.90
58517;DHT22;44308;50.810;0.284;2022-11-25T03:54:18;10.90;99.90
58517;DHT22;44308;50.810;0.284;2022-11-25T03:56:43;10.40;99.90
58517;DHT22;44308;50.810;0.284;2022-11-25T03:59:09;11.00;99.90
58517;DHT22;44308;50.810;0.284;2022-11-25T04:01:35;11.00;99.90
58517;DHT22;44308;50.810;0.284;2022-11-25T04:04:00;10.80;99.90
58517;DHT22;44308;50.810;0.284;2022-11-25T04:06:26;10.90;99.90
58517;DHT22;44308;50.810;0.284;2022-11-25T04:08:52;10.60;99.90
58517;DHT22;44308;50.810;0.284;2022-11-25T04:11:17;10.60;99.90
58517;DHT22;44308;50.810;0.284;2022-11-25T04:13:43;10.70;99.90
58517;DHT22;44308;50.810;0.284;2022-11-25T04:16:22;11.00;99.90
58517;DHT22;44308;50.810;0.284;2022-11-25T04:18:49;11.20;99.90
58517;DHT22;44308;50.810;0.284;2022-11-25T04:21:15;10.70;99.90
58517;DHT22;44308;50.810;0.284;2022-11-25T04:23:41;10.80;99.90
58517;DHT22;44308;50.810;0.284;2022-11-25T04:26:06;10.60;99.90
58517;DHT22;44308;50.810;0.284;2022-11-25T04:28:32;10.90;99.90
58517;DHT22;44308;50.810;0.284;2022-11-25T04:30:58;10.80;99.90
58517;DHT22;44308;50.810;0.284;2022-11-25T04:33:24;10.40;99.90
58517;DHT22;44308;50.810;0.284;2022-11-25T04:35:49;10.60;99.90
58517;DHT22;44308;50.810;0.284;2022-11-25T04:38:15;10.50;99.90
58517;DHT22;44308;50.810;0.284;2022-11-25T04:40:41;10.80;99.90
58517;DHT22;44308;50.810;0.284;2022-11-25T04:43:06;10.80;99.90
58517;DHT22;44308;50.810;0.284;2022-11-25T04:45:33;11.00;99.90
58517;DHT22;44308;50.810;0.284;2022-11-25T04:47:58;10.60;99.90
58517;DHT22;44308;50.810;0.284;2022-11-25T04:50:24;11.00;99.90
58517;DHT22;44308;50.810;0.284;2022-11-25T04:52:49;10.60;99.90
58517;DHT22;44308;50.810;0.284;2022-11-25T04:55:15;10.90;99.90
58517;DHT22;44308;50.810;0.284;2022-11-25T04:57:41;11.00;99.90
58517;DHT22;44308;50.810;0.284;2022-11-25T05:00:07;11.00;99.90
58517;DHT22;44308;50.810;0.284;2022-11-25T05:02:34;10.70;99.90
58517;DHT22;44308;50.810;0.284;2022-11-25T05:05:00;10.90;99.90
58517;DHT22;44308;50.810;0.284;2022-11-25T05:07:29;10.50;99.90
58517;DHT22;44308;50.810;0.284;2022-11-25T05:09:55;10.40;99.90
58517;DHT22;44308;50.810;0.284;2022-11-25T05:12:24;10.40;99.90
58517;DHT22;44308;50.810;0.284;2022-11-25T05:14:50;10.40;99.90
58517;DHT22;44308;50.810;0.284;2022-11-25T05:17:18;10.80;99.90
58517;DHT22;44308;50.810;0.284;2022-11-25T05:19:44;10.30;99.90
58517;DHT22;44308;50.810;0.284;2022-11-25T05:22:15;10.50;99.90
58517;DHT22;44308;50.810;0.284;2022-11-25T05:24:41;10.90;99.90
58517;DHT22;44308;50.810;0.284;2022-11-25T05:27:07;10.20;99.90
58517;DHT22;44308;50.810;0.284;2022-11-25T05:29:32;10.70;99.90
58517;DHT22;44308;50.810;0.284;2022-11-25T05:31:58;10.80;99.90
58517;DHT22;44308;50.810;0.284;2022-11-25T05:34:26;10.80;99.90
58517;DHT22;44308;50.810;0.284;2022-11-25T05:36:52;10.30;99.90
58517;DHT22;44308;50.810;0.284;2022-11-25T05:39:17;10.30;99.90
58517;DHT22;44308;50.810;0.284;2022-11-25T05:41:43;10.60;99.90
58517;DHT22;44308;50.810;0.284;2022-11-25T05:44:09;10.80;99.90
58517;DHT22;44308;50.810;0.284;2022-11-25T05:46:35;10.20;99.90
58517;DHT22;44308;50.810;0.284;2022-11-25T05:49:01;10.70;99.90
58517;DHT22;44308;50.810;0.284;2022-11-25T05:51:27;10.30;99.90
58517;DHT22;44308;50.810;0.284;2022-11-25T05:53:54;11.00;99.90
58517;DHT22;44308;50.810;0.284;2022-11-25T05:56:22;10.70;99.90
58517;DHT22;44308;50.810;0.284;2022-11-25T05:58:47;10.50;99.90
58517;DHT22;44308;50.810;0.284;2022-11-25T06:01:14;10.60;99.90
58517;DHT22;44308;50.810;0.284;2022-11-25T06:03:42;10.60;99.90
58517;DHT22;44308;50.810;0.284;2022-11-25T06:06:09;10.80;99.90
58517;DHT22;44308;50.810;0.284;2022-11-25T06:08:38;10.90;99.90
58517;DHT22;44308;50.810;0.284;2022-11-25T06:11:10;10.70;99.90
58517;DHT22;44308;50.810;0.284;2022-11-25T06:13:37;10.30;99.90
58517;DHT22;44308;50.810;0.284;2022-11-25T06:16:11;10.30;99.90
58517;DHT22;44308;50.810;0.284;2022-11-25T06:18:37;10.80;99.90
58517;DHT22;44308;50.810;0.284;2022-11-25T06:21:05;10.50;99.90
58517;DHT22;44308;50.810;0.284;2022-11-25T06:23:31;10.20;99.90
58517;DHT22;44308;50.810;0.284;2022-11-25T06:26:18;10.40;99.90
58517;DHT22;44308;50.810;0.284;2022-11-25T06:28:44;10.80;99.90
58517;DHT22;44308;50.810;0.284;2022-11-25T06:31:13;10.60;99.90
58517;DHT22;44308;50.810;0.284;2022-11-25T06:33:39;10.70;99.90
58517;DHT22;44308;50.810;0.284;2022-11-25T06:36:08;10.30;99.90
58517;DHT22;44308;50.810;0.284;2022-11-25T06:38:38;10.10;99.90
58517;DHT22;44308;50.810;0.284;2022-11-25T06:41:04;10.70;99.90
58517;DHT22;44308;50.810;0.284;2022-11-25T06:43:31;10.20;99.90
58517;DHT22;44308;50.810;0.284;2022-11-25T06:46:08;10.60;99.90
58517;DHT22;44308;50.810;0.284;2022-11-25T06:48:34;10.70;99.90
58517;DHT22;44308;50.810;0.284;2022-11-25T06:51:03;10.20;99.90
58517;DHT22;44308;50.810;0.284;2022-11-25T06:53:29;10.00;99.90
58517;DHT22;44308;50.810;0.284;2022-11-25T06:56:09;10.60;99.90
58517;DHT22;44308;50.810;0.284;2022-11-25T06:58:35;10.50;99.90
58517;DHT22;44308;50.810;0.284;2022-11-25T07:03:39;10.60;99.90
58517;DHT22;44308;50.810;0.284;2022-11-25T07:06:05;10.30;99.90
58517;DHT22;44308;50.810;0.284;2022-11-25T07:08:33;10.10;99.90
58517;DHT22;44308;50.810;0.284;2022-11-25T07:11:04;9.90;99.90
58517;DHT22;44308;50.810;0.284;2022-11-25T07:13:30;9.90;99.90
58517;DHT22;44308;50.810;0.284;2022-11-25T07:16:00;10.30;99.90
58517;DHT22;44308;50.810;0.284;2022-11-25T07:18:29;9.90;99.90
58517;DHT22;44308;50.810;0.284;2022-11-25T07:20:54;9.80;99.90
58517;DHT22;44308;50.810;0.284;2022-11-25T07:23:20;10.30;99.90
58517;DHT22;44308;50.810;0.284;2022-11-25T07:25:48;10.40;99.90
58517;DHT22;44308;50.810;0.284;2022-11-25T07:28:14;9.80;99.90
58517;DHT22;44308;50.810;0.284;2022-11-25T07:30:42;9.80;99.90
58517;DHT22;44308;50.810;0.284;2022-11-25T07:33:08;10.40;99.90
58517;DHT22;44308;50.810;0.284;2022-11-25T07:35:34;10.20;99.90
58517;DHT22;44308;50.810;0.284;2022-11-25T07:38:02;10.00;99.90
58517;DHT22;44308;50.810;0.284;2022-11-25T07:40:28;10.10;99.90
58517;DHT22;44308;50.810;0.284;2022-11-25T07:42:53;9.80;99.90
58517;DHT22;44308;50.810;0.284;2022-11-25T07:45:19;9.70;99.90
58517;DHT22;44308;50.810;0.284;2022-11-25T07:47:46;10.20;99.90
58517;DHT22;44308;50.810;0.284;2022-11-25T07:50:12;9.70;99.90
58517;DHT22;44308;50.810;0.284;2022-11-25T07:52:38;10.10;99.90
58517;DHT22;44308;50.810;0.284;2022-11-25T07:55:04;9.60;99.90
58517;DHT22;44308;50.810;0.284;2022-11-25T07:57:30;9.70;99.90
58517;DHT22;44308;50.810;0.284;2022-11-25T07:59:56;9.90;99.90
58517;DHT22;44308;50.810;0.284;2022-11-25T08:02:22;9.70;99.90
58517;DHT22;44308;50.810;0.284;2022-11-25T08:04:47;9.70;99.90
58517;DHT22;44308;50.810;0.284;2022-11-25T08:07:14;10.10;99.90
58517;DHT22;44308;50.810;0.284;2022-11-25T08:09:39;9.80;99.90
58517;DHT22;44308;50.810;0.284;2022-11-25T08:12:05;9.80;99.90
58517;DHT22;44308;50.810;0.284;2022-11-25T08:14:31;9.70;99.90
58517;DHT22;44308;50.810;0.284;2022-11-25T08:16:57;9.80;99.90
58517;DHT22;44308;50.810;0.284;2022-11-25T08:19:22;9.70;99.90
58517;DHT22;44308;50.810;0.284;2022-11-25T08:21:48;10.20;99.90
58517;DHT22;44308;50.810;0.284;2022-11-25T08:24:19;10.20;99.90
58517;DHT22;44308;50.810;0.284;2022-11-25T08:26:47;9.70;99.90
58517;DHT22;44308;50.810;0.284;2022-11-25T08:29:15;10.00;99.90
58517;DHT22;44308;50.810;0.284;2022-11-25T08:31:41;9.90;99.90
58517;DHT22;44308;50.810;0.284;2022-11-25T08:34:19;9.90;99.90
58517;DHT22;44308;50.810;0.284;2022-11-25T08:36:45;10.00;99.90
58517;DHT22;44308;50.810;0.284;2022-11-25T08:39:11;9.80;99.90
58517;DHT22;44308;50.810;0.284;2022-11-25T08:41:37;10.10;99.90
58517;DHT22;44308;50.810;0.284;2022-11-25T08:44:05;10.20;99.90
58517;DHT22;44308;50.810;0.284;2022-11-25T08:46:34;10.30;99.90
58517;DHT22;44308;50.810;0.284;2022-11-25T08:49:01;10.20;99.90
58517;DHT22;44308;50.810;0.284;2022-11-25T08:51:29;10.30;99.90
58517;DHT22;44308;50.810;0.284;2022-11-25T08:53:58;10.40;99.90
58517;DHT22;44308;50.810;0.284;2022-11-25T08:56:25;10.40;99.90
58517;DHT22;44308;50.810;0.284;2022-11-25T08:58:51;10.20;99.90
58517;DHT22;44308;50.810;0.284;2022-11-25T09:01:18;10.30;99.90
58517;DHT22;44308;50.810;0.284;2022-11-25T09:03:47;10.00;99.90
58517;DHT22;44308;50.810;0.284;2022-11-25T09:06:14;10.10;99.90
58517;DHT22;44308;50.810;0.284;2022-11-25T09:08:41;10.50;99.90
58517;DHT22;44308;50.810;0.284;2022-11-25T09:11:10;10.20;99.90
58517;DHT22;44308;50.810;0.284;2022-11-25T09:13:36;10.40;99.90
58517;DHT22;44308;50.810;0.284;2022-11-25T09:16:02;10.80;99.90
58517;DHT22;44308;50.810;0.284;2022-11-25T09:18:29;10.80;99.90
58517;DHT22;44308;50.810;0.284;2022-11-25T09:20:59;10.60;99.90
58517;DHT22;44308;50.810;0.284;2022-11-25T09:23:33;10.90;99.90
58517;DHT22;44308;50.810;0.284;2022-11-25T09:25:59;11.70;99.90
58517;DHT22;44308;50.810;0.284;2022-11-25T09:28:25;12.10;99.90
58517;DHT22;44308;50.810;0.284;2022-11-25T09:30:51;12.40;99.90
58517;DHT22;44308;50.810;0.284;2022-11-25T09:33:18;12.60;99.90
58517;DHT22;44308;50.810;0.284;2022-11-25T09:35:44;12.80;99.90
58517;DHT22;44308;50.810;0.284;2022-11-25T09:38:10;13.00;99.90
58517;DHT22;44308;50.810;0.284;2022-11-25T09:40:50;13.30;99.90
58517;DHT22;44308;50.810;0.284;2022-11-25T09:46:48;13.50;99.90
58517;DHT22;44308;50.810;0.284;2022-11-25T09:54:41;14.10;99.90
58517;DHT22;44308;50.810;0.284;2022-11-25T10:00:03;14.10;99.90
58517;DHT22;44308;50.810;0.284;2022-11-25T10:02:40;14.20;99.90
58517;DHT22;44308;50.810;0.284;2022-11-25T10:05:29;14.30;99.90
58517;DHT22;44308;50.810;0.284;2022-11-25T10:07:59;14.50;99.90
58517;DHT22;44308;50.810;0.284;2022-11-25T10:10:36;14.40;99.90
58517;DHT22;44308;50.810;0.284;2022-11-25T10:13:04;14.60;99.90
58517;DHT22;44308;50.810;0.284;2022-11-25T10:15:41;14.80;99.90
58517;DHT22;44308;50.810;0.284;2022-11-25T10:18:26;14.90;99.90
58517;DHT22;44308;50.810;0.284;2022-11-25T10:20:54;14.90;99.90
58517;DHT22;44308;50.810;0.284;2022-11-25T10:23:28;14.90;99.90
58517;DHT22;44308;50.810;0.284;2022-11-25T10:25:58;14.80;99.90
58517;DHT22;44308;50.810;0.284;2022-11-25T10:28:31;14.90;99.90
58517;DHT22;44308;50.810;0.284;2022-11-25T10:31:05;15.10;99.90
58517;DHT22;44308;50.810;0.284;2022-11-25T10:33:40;15.00;99.90
58517;DHT22;44308;50.810;0.284;2022-11-25T10:36:13;15.10;99.90
58517;DHT22;44308;50.810;0.284;2022-11-25T10:38:41;15.00;99.90
58517;DHT22;44308;50.810;0.284;2022-11-25T10:41:19;15.00;99.90
58517;DHT22;44308;50.810;0.284;2022-11-25T10:43:46;15.00;99.90
58517;DHT22;44308;50.810;0.284;2022-11-25T10:49:11;14.80;99.90
58517;DHT22;44308;50.810;0.284;2022-11-25T10:51:46;14.70;99.90
58517;DHT22;44308;50.810;0.284;2022-11-25T10:54:17;14.80;99.90
58517;DHT22;44308;50.810;0.284;2022-11-25T10:56:52;14.70;99.90
58517;DHT22;44308;50.810;0.284;2022-11-25T10:59:26;14.90;99.90
58517;DHT22;44308;50.810;0.284;2022-11-25T11:05:02;15.20;99.90
58517;DHT22;44308;50.810;0.284;2022-11-25T11:07:32;15.20;99.90
58517;DHT22;44308;50.810;0.284;2022-11-25T11:10:12;15.00;99.90
58517;DHT22;44308;50.810;0.284;2022-11-25T11:12:59;15.00;99.90
58517;DHT22;44308;50.810;0.284;2022-11-25T11:15:52;15.10;99.90
58517;DHT22;44308;50.810;0.284;2022-11-25T11:18:27;15.20;99.90
58517;DHT22;44308;50.810;0.284;2022-11-25T11:20:57;15.20;99.90
58517;DHT22;44308;50.810;0.284;2022-11-25T11:23:45;15.20;99.90
58517;DHT22;44308;50.810;0.284;2022-11-25T11:30:14;15.40;99.90
58517;DHT22;44308;50.810;0.284;2022-11-25T11:32:43;15.50;99.90
58517;DHT22;44308;50.810;0.284;2022-11-25T11:35:18;15.60;99.90
58517;DHT22;44308;50.810;0.284;2022-11-25T11:37:48;15.70;99.90
58517;DHT22;44308;50.810;0.284;2022-11-25T11:40:43;15.70;99.90
58517;DHT22;44308;50.810;0.284;2022-11-25T11:51:40;15.40;99.90
58517;DHT22;44308;50.810;0.284;2022-11-25T11:54:15;15.30;99.90
58517;DHT22;44308;50.810;0.284;2022-11-25T11:56:58;15.20;99.90
58517;DHT22;44308;50.810;0.284;2022-11-25T12:02:14;15.20;99.90
58517;DHT22;44308;50.810;0.284;2022-11-25T12:04:53;15.10;99.90
58517;DHT22;44308;50.810;0.284;2022-11-25T12:10:16;15.00;99.90
58517;DHT22;44308;50.810;0.284;2022-11-25T12:18:16;15.10;99.90
58517;DHT22;44308;50.810;0.284;2022-11-25T12:21:02;15.20;99.90
58517;DHT22;44308;50.810;0.284;2022-11-25T12:26:28;15.10;99.90
58517;DHT22;44308;50.810;0.284;2022-11-25T12:28:59;15.10;99.90
58517;DHT22;44308;50.810;0.284;2022-11-25T12:31:43;15.10;99.90
58517;DHT22;44308;50.810;0.284;2022-11-25T12:37:11;15.10;99.90
58517;DHT22;44308;50.810;0.284;2022-11-25T12:39:44;15.10;99.90
58517;DHT22;44308;50.810;0.284;2022-11-25T12:42:15;15.30;99.90
58517;DHT22;44308;50.810;0.284;2022-11-25T12:44:55;15.40;99.90
58517;DHT22;44308;50.810;0.284;2022-11-25T12:47:22;15.40;99.90
58517;DHT22;44308;50.810;0.284;2022-11-25T12:49:50;15.40;99.90
58517;DHT22;44308;50.810;0.284;2022-11-25T13:14:11;14.80;99.90
58517;DHT22;44308;50.810;0.284;2022-11-25T13:16:41;14.90;99.90
58517;DHT22;44308;50.810;0.284;2022-11-25T13:19:10;14.80;99.90
58517;DHT22;44308;50.810;0.284;2022-11-25T13:22:01;14.90;99.90
58517;DHT22;44308;50.810;0.284;2022-11-25T13:24:33;15.00;99.90
58517;DHT22;44308;50.810;0.284;2022-11-25T13:27:03;14.80;99.90
58517;DHT22;44308;50.810;0.284;2022-11-25T13:32:33;14.70;99.90
58517;DHT22;44308;50.810;0.284;2022-11-25T13:37:47;14.50;99.90
58517;DHT22;44308;50.810;0.284;2022-11-25T13:42:48;14.40;99.90
58517;DHT22;44308;50.810;0.284;2022-11-25T13:45:32;14.40;99.90
58517;DHT22;44308;50.810;0.284;2022-11-25T13:48:19;14.20;99.90
58517;DHT22;44308;50.810;0.284;2022-11-25T13:50:46;14.20;99.90
58517;DHT22;44308;50.810;0.284;2022-11-25T13:53:31;14.10;99.90
58517;DHT22;44308;50.810;0.284;2022-11-25T13:56:28;14.10;99.90
58517;DHT22;44308;50.810;0.284;2022-11-25T14:01:56;13.90;99.90
58517;DHT22;44308;50.810;0.284;2022-11-25T14:04:55;13.90;99.90
58517;DHT22;44308;50.810;0.284;2022-11-25T14:15:35;13.80;99.90
58517;DHT22;44308;50.810;0.284;2022-11-25T14:21:05;13.80;99.90
58517;DHT22;44308;50.810;0.284;2022-11-25T14:23:52;13.70;99.90
58517;DHT22;44308;50.810;0.284;2022-11-25T14:26:29;13.70;99.90
58517;DHT22;44308;50.810;0.284;2022-11-25T14:31:43;13.40;99.90
58517;DHT22;44308;50.810;0.284;2022-11-25T14:40:00;13.30;99.90
58517;DHT22;44308;50.810;0.284;2022-11-25T14:42:34;13.30;99.90
58517;DHT22;44308;50.810;0.284;2022-11-25T14:45:01;13.20;99.90
58517;DHT22;44308;50.810;0.284;2022-11-25T14:47:30;13.20;99.90
58517;DHT22;44308;50.810;0.284;2022-11-25T14:50:01;13.20;99.90
58517;DHT22;44308;50.810;0.284;2022-11-25T14:52:33;13.30;99.90
58517;DHT22;44308;50.810;0.284;2022-11-25T14:55:02;13.20;99.90
58517;DHT22;44308;50.810;0.284;2022-11-25T14:57:32;13.20;99.90
58517;DHT22;44308;50.810;0.284;2022-11-25T15:00:06;13.20;99.90
58517;DHT22;44308;50.810;0.284;2022-11-25T15:02:35;13.20;99.90
58517;DHT22;44308;50.810;0.284;2022-11-25T15:07:52;13.00;99.90
58517;DHT22;44308;50.810;0.284;2022-11-25T15:18:30;12.60;99.90
58517;DHT22;44308;50.810;0.284;2022-11-25T15:20:59;12.50;99.90
58517;DHT22;44308;50.810;0.284;2022-11-25T15:23:35;12.50;99.90
58517;DHT22;44308;50.810;0.284;2022-11-25T15:26:12;12.40;99.90
58517;DHT22;44308;50.810;0.284;2022-11-25T15:28:39;12.40;99.90
58517;DHT22;44308;50.810;0.284;2022-11-25T15:31:10;12.20;99.90
58517;DHT22;44308;50.810;0.284;2022-11-25T15:33:37;12.10;99.90
58517;DHT22;44308;50.810;0.284;2022-11-25T15:36:03;12.10;99.90
58517;DHT22;44308;50.810;0.284;2022-11-25T15:38:44;12.00;99.90
58517;DHT22;44308;50.810;0.284;2022-11-25T15:43:46;11.80;99.90
58517;DHT22;44308;50.810;0.284;2022-11-25T15:46:12;11.70;99.90
58517;DHT22;44308;50.810;0.284;2022-11-25T15:48:43;11.70;99.90
58517;DHT22;44308;50.810;0.284;2022-11-25T15:51:19;11.60;99.90
58517;DHT22;44308;50.810;0.284;2022-11-25T15:53:53;11.50;99.90
58517;DHT22;44308;50.810;0.284;2022-11-25T15:56:24;11.40;99.90
58517;DHT22;44308;50.810;0.284;2022-11-25T15:58:50;11.20;99.90
58517;DHT22;44308;50.810;0.284;2022-11-25T16:03:46;11.10;99.90
58517;DHT22;44308;50.810;0.284;2022-11-25T16:06:23;11.20;99.90
58517;DHT22;44308;50.810;0.284;2022-11-25T16:09:00;11.10;99.90
58517;DHT22;44308;50.810;0.284;2022-11-25T16:11:27;11.00;99.90
58517;DHT22;44308;50.810;0.284;2022-11-25T16:14:18;11.00;99.90
58517;DHT22;44308;50.810;0.284;2022-11-25T16:16:48;10.90;99.90
58517;DHT22;44308;50.810;0.284;2022-11-25T16:19:16;10.80;99.90
58517;DHT22;44308;50.810;0.284;2022-11-25T16:21:53;10.60;99.90
58517;DHT22;44308;50.810;0.284;2022-11-25T16:27:16;10.50;99.90
58517;DHT22;44308;50.810;0.284;2022-11-25T16:32:21;10.50;99.90
58517;DHT22;44308;50.810;0.284;2022-11-25T16:34:47;10.20;99.90
58517;DHT22;44308;50.810;0.284;2022-11-25T16:37:14;10.20;99.90
58517;DHT22;44308;50.810;0.284;2022-11-25T16:39:40;10.40;99.90
58517;DHT22;44308;50.810;0.284;2022-11-25T16:42:06;10.30;99.90
58517;DHT22;44308;50.810;0.284;2022-11-25T16:44:37;10.00;99.90
58517;DHT22;44308;50.810;0.284;2022-11-25T16:47:02;10.00;99.90
58517;DHT22;44308;50.810;0.284;2022-11-25T16:49:29;10.40;99.90
58517;DHT22;44308;50.810;0.284;2022-11-25T16:51:55;10.40;99.90
58517;DHT22;44308;50.810;0.284;2022-11-25T16:54:22;10.20;99.90
58517;DHT22;44308;50.810;0.284;2022-11-25T16:56:50;10.20;99.90
58517;DHT22;44308;50.810;0.284;2022-11-25T16:59:21;10.50;99.90
58517;DHT22;44308;50.810;0.284;2022-11-25T17:01:50;10.40;99.90
58517;DHT22;44308;50.810;0.284;2022-11-25T17:04:17;9.90;99.90
58517;DHT22;44308;50.810;0.284;2022-11-25T17:06:43;9.90;99.90
58517;DHT22;44308;50.810;0.284;2022-11-25T17:09:10;10.00;99.90
58517;DHT22;44308;50.810;0.284;2022-11-25T17:14:13;9.60;99.90
58517;DHT22;44308;50.810;0.284;2022-11-25T17:16:42;10.00;99.90
58517;DHT22;44308;50.810;0.284;2022-11-25T17:19:12;9.60;99.90
58517;DHT22;44308;50.810;0.284;2022-11-25T17:21:39;9.60;99.90
58517;DHT22;44308;50.810;0.284;2022-11-25T17:24:30;9.80;99.90
58517;DHT22;44308;50.810;0.284;2022-11-25T17:27:01;9.50;99.90
58517;DHT22;44308;50.810;0.284;2022-11-25T17:29:40;9.70;99.90
58517;DHT22;44308;50.810;0.284;2022-11-25T17:32:14;9.40;99.90
58517;DHT22;44308;50.810;0.284;2022-11-25T17:34:40;9.90;99.90
58517;DHT22;44308;50.810;0.284;2022-11-25T17:37:18;9.50;99.90
58517;DHT22;44308;50.810;0.284;2022-11-25T17:39:44;9.40;99.90
58517;DHT22;44308;50.810;0.284;2022-11-25T17:42:14;9.40;99.90
58517;DHT22;44308;50.810;0.284;2022-11-25T17:44:42;9.80;99.90
58517;DHT22;44308;50.810;0.284;2022-11-25T17:47:13;9.80;99.90
58517;DHT22;44308;50.810;0.284;2022-11-25T17:49:39;9.90;99.90
58517;DHT22;44308;50.810;0.284;2022-11-25T17:52:08;9.80;99.90
58517;DHT22;44308;50.810;0.284;2022-11-25T17:54:34;10.20;99.90
58517;DHT22;44308;50.810;0.284;2022-11-25T17:57:00;10.20;99.90
58517;DHT22;44308;50.810;0.284;2022-11-25T17:59:29;10.00;99.90
58517;DHT22;44308;50.810;0.284;2022-11-25T18:01:55;10.50;99.90
58517;DHT22;44308;50.810;0.284;2022-11-25T18:04:30;10.60;99.90
58517;DHT22;44308;50.810;0.284;2022-11-25T18:06:56;10.70;99.90
58517;DHT22;44308;50.810;0.284;2022-11-25T18:09:22;10.80;99.90